Time;durP1;ratioP1;P1;durP2;ratioP2;P2;SDS_P1;SDS_P2;PMS_P1;PMS_P2;Temp;Humidity;BMP_temperature;BMP_pressure;BME280_temperature;BME280_humidity;BME280_pressure;Samples;Min_cycle;Max_cycle;Signal;HPM_P1;HPM_P2
2022/05/16 00:00:35;;;;;;;;;4.75;3.50;;;;;20.92;61.93;101100.22;2417769;28;45267;-80
2022/05/16 00:01:45;;;;;;;;;3.50;3.25;;;;;20.90;61.98;101097.66;2393440;28;47033;-80
2022/05/16 00:03:00;;;;;;;;;3.00;3.00;;;;;20.87;62.37;101103.22;2418908;28;45504;-80
2022/05/16 00:04:10;;;;;;;;;3.00;3.00;;;;;20.85;62.32;101094.47;2392064;28;46339;-81
2022/05/16 00:05:21;;;;;;;;;3.75;3.00;;;;;;;;2423901;28;44845;-81
2022/05/16 00:06:31;;;;;;;;;4.00;3.50;;;;;20.84;62.52;101111.44;2425917;28;45547;-80
2022/05/16 00:07:42;;;;;;;;;3.75;3.00;;;;;20.79;62.50;101100.25;2424842;28;45390;-80
2022/05/16 00:08:55;;;;;;;;;4.00;3.50;;;;;20.76;62.46;101106.66;2431781;28;46100;-81
2022/05/16 00:10:06;;;;;;;;;4.50;4.50;;;;;20.77;62.64;101118.19;2412037;28;45576;-81
2022/05/16 00:11:18;;;;;;;;;3.25;3.25;;;;;20.77;62.71;101118.19;2407694;28;46638;-80
2022/05/16 00:12:28;;;;;;;;;3.25;2.50;;;;;20.76;61.97;101116.50;2429737;28;45563;-80
2022/05/16 00:13:38;;;;;;;;;3.00;3.00;;;;;20.75;62.37;101120.97;2388098;28;48220;-80
2022/05/16 00:14:49;;;;;;;;;6.00;4.00;;;;;20.76;61.07;101122.69;2395207;28;45446;-81
2022/05/16 00:16:00;;;;;;;;;2.25;2.25;;;;;20.75;60.50;101122.78;2428815;28;45320;-80
2022/05/16 00:17:12;;;;;;;;;2.50;2.50;;;;;20.78;61.81;101128.78;2408391;28;45308;-81
2022/05/16 00:18:23;;;;;;;;;3.00;3.00;;;;;20.78;62.19;101125.25;2426730;28;47691;-81
2022/05/16 00:19:34;;;;;;;;;4.25;3.50;;;;;20.81;62.42;101127.72;2422056;28;45576;-80
2022/05/16 00:20:44;;;;;;;;;5.75;3.25;;;;;20.83;62.56;101117.75;2411541;28;46985;-80
2022/05/16 00:21:55;;;;;;;;;3.50;3.50;;;;;20.84;62.30;101118.63;2397311;28;45245;-81
2022/05/16 00:23:06;;;;;;;;;6.00;3.25;;;;;20.85;61.91;101121.19;2429494;28;46564;-81
2022/05/16 00:24:18;;;;;;;;;4.00;3.00;;;;;20.79;62.55;101110.94;2403069;28;45453;-81
2022/05/16 00:25:29;;;;;;;;;5.25;4.00;;;;;20.85;62.54;101113.16;2412223;28;45526;-81
2022/05/16 00:26:39;;;;;;;;;4.00;4.00;;;;;20.82;62.00;101102.69;2437424;27;44841;-80
2022/05/16 00:27:50;;;;;;;;;5.00;4.00;;;;;20.78;61.87;101112.75;2409767;28;45495;-81
2022/05/16 00:29:00;;;;;;;;;3.25;2.25;;;;;20.78;62.13;101109.22;2426313;28;45374;-81
2022/05/16 00:30:14;;;;;;;;;4.75;4.00;;;;;20.79;62.67;101094.91;2432656;28;48352;-82
2022/05/16 00:31:24;;;;;;;;;5.50;3.75;;;;;20.77;61.92;101089.66;2427911;28;45312;-82
2022/05/16 00:32:35;;;;;;;;;3.00;2.00;;;;;20.77;62.39;101092.34;2414318;28;46453;-81
2022/05/16 00:33:45;;;;;;;;;4.00;4.00;;;;;20.77;62.90;101091.47;2401228;28;45255;-81
2022/05/16 00:34:55;;;;;;;;;5.00;4.00;;;;;20.78;62.87;101098.53;2409141;28;46829;-81
2022/05/16 00:36:06;;;;;;;;;8.25;3.75;;;;;20.80;63.51;101109.97;2423875;28;44811;-81
2022/05/16 00:37:16;;;;;;;;;4.00;4.00;;;;;20.83;63.26;101117.75;2408433;28;47995;-81
2022/05/16 00:38:27;;;;;;;;;5.25;4.00;;;;;20.81;63.18;101119.69;2431085;28;44762;-81
2022/05/16 00:39:37;;;;;;;;;4.50;4.50;;;;;20.84;63.49;101123.97;2414508;28;46743;-81
2022/05/16 00:40:47;;;;;;;;;4.50;4.50;;;;;20.84;63.18;101118.63;2416647;28;45227;-81
2022/05/16 00:41:58;;;;;;;;;4.50;4.00;;;;;20.87;63.33;101113.91;2399556;28;46483;-81
2022/05/16 00:43:13;;;;;;;;;4.50;4.50;;;;;20.85;63.59;101110.50;2423537;28;44822;-82
2022/05/16 00:44:24;;;;;;;;;4.75;4.75;;;;;20.88;63.66;101112.94;2411854;28;45306;-81
2022/05/16 00:45:34;;;;;;;;;6.75;4.25;;;;;20.86;63.65;101112.22;2438129;28;44686;-82
2022/05/16 00:46:47;;;;;;;;;5.50;5.50;;;;;20.90;63.73;101118.19;2404925;28;47529;-81
2022/05/16 00:47:57;;;;;;;;;4.00;4.00;;;;;20.89;62.53;101121.84;2412090;28;45380;-82
2022/05/16 00:49:13;;;;;;;;;5.00;5.00;;;;;20.89;63.21;101120.00;2434462;28;45559;-82
2022/05/16 00:50:25;;;;;;;;;4.00;4.00;;;;;20.86;63.70;101120.22;2428226;28;45371;-82
2022/05/16 00:51:49;;;;;;;;;4.75;4.75;;;;;20.86;63.34;101117.56;2410787;28;45539;-82
2022/05/16 00:53:00;;;;;;;;;4.25;4.25;;;;;20.89;63.23;101119.16;2401337;28;44806;-82
2022/05/16 00:54:15;;;;;;;;;7.00;4.00;;;;;20.91;63.38;101122.56;2413417;28;46444;-81
2022/05/16 00:55:30;;;;;;;;;7.25;4.75;;;;;20.89;63.42;101108.47;2411194;28;45387;-78
2022/05/16 00:56:41;;;;;;;;;4.75;4.75;;;;;20.90;63.33;101108.34;2434579;28;47205;-78
2022/05/16 00:57:55;;;;;;;;;4.00;4.00;;;;;20.88;63.79;101098.75;2410246;28;45379;-78
2022/05/16 00:59:07;;;;;;;;;4.00;3.00;;;;;20.88;63.90;101110.28;2429257;28;45444;-78
2022/05/16 01:00:22;;;;;;;;;4.75;4.75;;;;;20.88;63.98;101098.75;2403533;28;44651;-78
2022/05/16 01:04:49;;;;;;;;;4.25;4.00;;;;;20.79;63.76;101095.75;2428547;28;46875;-79
2022/05/16 01:06:00;;;;;;;;;4.00;4.00;;;;;20.82;62.56;101097.34;2421405;28;44742;-79
2022/05/16 01:07:11;;;;;;;;;5.00;5.00;;;;;20.84;63.00;101095.41;2397796;28;45477;-79
2022/05/16 01:08:24;;;;;;;;;3.50;3.50;;;;;20.87;63.70;101097.00;2408482;28;45392;-79
2022/05/16 01:09:34;;;;;;;;;4.00;4.00;;;;;20.86;63.74;101085.50;2406632;28;46422;-81
2022/05/16 01:10:45;;;;;;;;;5.00;5.00;;;;;20.86;63.38;101085.50;2412346;28;44799;-80
2022/05/16 01:11:56;;;;;;;;;4.50;3.50;;;;;20.86;63.01;101082.81;2411448;28;45473;-80
2022/05/16 01:13:07;;;;;;;;;4.25;4.25;;;;;20.87;62.90;101089.00;2411890;28;44780;-80
2022/05/16 01:14:45;;;;;;;;;5.75;5.00;;;;;20.90;63.15;101088.78;2399967;28;48206;-79
2022/05/16 01:15:56;;;;;;;;;4.00;4.00;;;;;20.88;63.39;101085.38;2392883;28;45304;-80
2022/05/16 01:17:08;;;;;;;;;5.25;3.50;;;;;20.86;63.43;101092.66;2400743;28;45304;-80
2022/05/16 01:18:21;;;;;;;;;4.25;4.25;;;;;20.89;62.57;101095.13;2433785;28;45626;-80
2022/05/16 01:19:32;;;;;;;;;5.00;3.75;;;;;20.87;63.23;101097.88;2405321;28;45430;-80
2022/05/16 01:21:09;;;;;;;;;5.25;5.00;;;;;20.86;63.19;101090.84;2429008;28;45320;-79
2022/05/16 01:22:30;;;;;;;;;4.25;4.25;;;;;20.86;63.05;101090.84;2427797;28;45525;-81
2022/05/16 01:23:47;;;;;;;;;4.00;4.00;;;;;20.86;62.77;101098.00;2411917;28;45295;-81
2022/05/16 01:25:06;;;;;;;;;7.25;4.25;;;;;20.82;62.56;101085.84;2403457;28;45378;-81
2022/05/16 01:26:24;;;;;;;;;5.00;5.00;;;;;20.83;62.89;101091.06;2407634;28;45448;-81
2022/05/16 01:27:46;;;;;;;;;3.25;3.25;;;;;;;;2406309;28;46258;-81
2022/05/16 01:28:57;;;;;;;;;5.00;5.00;;;;;;;;2401534;28;45298;-81
2022/05/16 01:30:08;;;;;;;;;7.00;5.00;;;;;20.84;62.76;101098.09;2401441;28;45294;-81
2022/05/16 01:31:19;;;;;;;;;6.75;6.00;;;;;20.82;62.78;101099.19;2401137;28;45495;-81
2022/05/16 01:32:29;;;;;;;;;38.50;31.50;;;;;20.79;63.06;101092.25;2438347;28;47319;-81
2022/05/16 01:33:39;;;;;;;;;29.50;28.50;;;;;20.79;62.75;101103.75;2408800;28;44816;-81
2022/05/16 01:34:50;;;;;;;;;23.75;22.25;;;;;20.78;62.82;101094.06;2397316;28;46032;-81
2022/05/16 01:36:00;;;;;;;;;6.50;5.75;;;;;20.80;61.40;101091.28;2418515;28;45468;-81
2022/05/16 01:37:12;;;;;;;;;32.50;30.00;;;;;20.78;62.57;101094.06;2417214;28;45514;-81
2022/05/16 01:38:26;;;;;;;;;12.75;11.50;;;;;20.84;62.14;101114.13;2426102;28;44771;-81
2022/05/16 01:39:37;;;;;;;;;59.50;46.75;;;;;20.84;62.66;101118.63;2402864;28;45547;-81
2022/05/16 01:40:50;;;;;;;;;9.25;8.25;;;;;20.80;61.35;101115.31;2416850;28;45283;-81
2022/05/16 01:42:01;;;;;;;;;50.00;39.50;;;;;20.83;62.07;101115.09;2424061;28;45659;-81
2022/05/16 01:43:12;;;;;;;;;46.75;38.75;;;;;20.79;62.56;101111.78;2427342;28;45284;-81
2022/05/16 01:44:23;;;;;;;;;47.00;40.25;;;;;20.85;62.78;101115.84;2391294;28;46344;-81
2022/05/16 01:45:33;;;;;;;;;22.75;18.50;;;;;20.84;62.39;101111.44;2397604;28;45379;-81
2022/05/16 01:46:44;;;;;;;;;27.00;23.00;;;;;20.87;62.92;101119.25;2437456;28;47977;-81
2022/05/16 01:47:54;;;;;;;;;18.75;15.75;;;;;20.85;61.72;101105.16;2418269;28;45348;-81
2022/05/16 01:49:07;;;;;;;;;20.00;19.25;;;;;20.85;62.16;101110.50;2406835;28;48086;-81
2022/05/16 01:50:17;;;;;;;;;17.50;12.50;;;;;20.85;62.30;101109.63;2432101;28;45438;-81
2022/05/16 01:51:28;;;;;;;;;9.25;9.25;;;;;20.84;61.77;101114.13;2420407;28;46290;-81
2022/05/16 01:52:38;;;;;;;;;9.25;8.50;;;;;20.87;61.12;101123.72;2391685;28;44876;-81
2022/05/16 01:53:49;;;;;;;;;5.75;5.50;;;;;20.83;62.26;101117.75;2415314;28;45494;-81
2022/05/16 01:55:00;;;;;;;;;7.50;6.75;;;;;20.82;61.63;101118.72;2422028;28;44755;-81
2022/05/16 01:56:10;;;;;;;;;6.75;5.25;;;;;20.81;61.86;101114.34;2419397;28;45527;-81
2022/05/16 01:57:20;;;;;;;;;8.00;7.75;;;;;20.85;61.53;101112.31;2402292;28;46390;-81
2022/05/16 01:58:31;;;;;;;;;10.75;9.75;;;;;20.85;61.51;101121.19;2425722;28;45369;-81
2022/05/16 01:59:41;;;;;;;;;8.25;8.25;;;;;20.86;60.93;101114.88;2417390;28;45341;-81
2022/05/16 02:00:53;;;;;;;;;9.75;8.75;;;;;20.88;60.45;101114.75;2430787;28;45621;-82
2022/05/16 02:02:03;;;;;;;;;8.25;8.25;;;;;20.90;61.29;101119.03;2399267;28;45223;-82
2022/05/16 02:03:14;;;;;;;;;7.75;7.00;;;;;20.92;61.62;101121.59;2414435;28;46671;-81
2022/05/16 02:04:24;;;;;;;;;5.50;5.50;;;;;20.92;61.17;101116.25;2398721;28;45257;-81
2022/05/16 02:05:35;;;;;;;;;10.50;7.75;;;;;20.91;60.80;101115.38;2408397;28;45406;-81
2022/05/16 02:06:46;;;;;;;;;6.00;6.00;;;;;20.94;61.96;101118.81;2418348;28;45295;-81
2022/05/16 02:07:56;;;;;;;;;8.25;7.75;;;;;20.95;61.16;101117.84;2397800;28;48079;-81
2022/05/16 02:09:07;;;;;;;;;6.75;6.00;;;;;20.94;61.30;101116.16;2435314;28;44740;-81
2022/05/16 02:10:20;;;;;;;;;4.25;4.00;;;;;20.94;60.83;101127.66;2397119;28;48159;-78
2022/05/16 02:11:31;;;;;;;;;7.00;6.50;;;;;20.95;61.04;101120.50;2406375;28;45364;-77
2022/05/16 02:12:42;;;;;;;;;5.25;4.50;;;;;20.96;61.63;101128.44;2429208;28;46224;-77
2022/05/16 02:13:52;;;;;;;;;10.00;7.75;;;;;20.97;60.77;101123.94;2412513;28;45409;-78
2022/05/16 02:15:09;;;;;;;;;9.25;7.25;;;;;20.97;61.63;101118.59;2411182;28;46152;-78
2022/05/16 02:16:19;;;;;;;;;7.00;7.00;;;;;20.97;62.41;101114.09;2401764;28;45393;-79
2022/05/16 02:17:29;;;;;;;;;6.00;4.50;;;;;20.97;61.97;101118.59;2417643;28;48012;-81
2022/05/16 02:18:40;;;;;;;;;6.25;6.00;;;;;20.97;62.39;101114.09;2396886;28;44825;-81
2022/05/16 02:19:50;;;;;;;;;11.50;9.25;;;;;20.97;61.79;101119.44;2413982;28;45279;-81
2022/05/16 02:25:31;;;;;;;;;8.25;7.00;;;;;20.91;62.06;101115.38;2408396;28;45319;-80
2022/05/16 02:26:46;;;;;;;;;8.25;7.50;;;;;20.92;62.17;101119.78;2427394;28;45485;-80
2022/05/16 02:27:56;;;;;;;;;7.25;6.25;;;;;20.92;62.20;101122.44;2415986;28;45674;-80
2022/05/16 02:29:07;;;;;;;;;8.50;8.50;;;;;20.91;62.25;101125.25;2422596;28;44676;-80
2022/05/16 02:30:18;;;;;;;;;9.25;8.25;;;;;20.89;61.55;101125.31;2402293;28;45426;-80
2022/05/16 02:31:28;;;;;;;;;6.75;5.50;;;;;20.90;60.57;101123.53;2400986;28;45403;-80
2022/05/16 02:32:39;;;;;;;;;6.25;6.25;;;;;20.88;60.74;101115.63;2425166;28;46398;-80
2022/05/16 02:33:49;;;;;;;;;7.75;7.75;;;;;20.90;60.98;101124.38;2403638;28;45649;-80
2022/05/16 02:35:00;;;;;;;;;9.50;7.50;;;;;20.90;60.30;101119.03;2430152;28;45306;-80
2022/05/16 02:36:10;;;;;;;;;6.25;6.25;;;;;20.92;60.59;101118.91;2406000;28;45468;-80
2022/05/16 02:37:21;;;;;;;;;7.50;6.50;;;;;20.95;60.10;101125.84;2416240;28;45662;-80
2022/05/16 02:38:31;;;;;;;;;5.75;5.75;;;;;20.97;60.27;101116.78;2437738;28;45367;-80
2022/05/16 02:39:44;;;;;;;;;3.50;3.25;;;;;20.98;59.90;101120.31;2425326;28;45474;-80
2022/05/16 02:40:55;;;;;;;;;8.50;8.50;;;;;20.98;60.39;101120.31;2417097;28;45278;-79
2022/05/16 02:42:05;;;;;;;;;10.25;6.50;;;;;21.01;60.40;101126.28;2426647;28;45310;-79
2022/05/16 02:43:15;;;;;;;;;9.50;8.00;;;;;21.05;59.94;101132.28;2403648;28;45290;-79
2022/05/16 02:44:26;;;;;;;;;7.75;7.50;;;;;21.08;60.25;101121.38;2417579;28;45649;-80
2022/05/16 02:45:37;;;;;;;;;12.75;9.00;;;;;21.10;61.20;101122.13;2417448;28;45213;-79
2022/05/16 02:46:48;;;;;;;;;7.00;7.00;;;;;21.11;61.13;101131.00;2429689;28;45614;-79
2022/05/16 02:47:58;;;;;;;;;8.75;8.00;;;;;21.13;60.21;101124.59;2410835;28;45233;-80
2022/05/16 02:49:09;;;;;;;;;8.50;8.50;;;;;21.13;61.46;101124.59;2408938;28;47932;-80
2022/05/16 02:50:23;;;;;;;;;10.00;8.25;;;;;21.14;61.39;101136.97;2436314;28;45446;-77
2022/05/16 02:51:33;;;;;;;;;10.00;9.25;;;;;21.12;60.96;101130.88;2396593;28;47612;-77
2022/05/16 02:52:44;;;;;;;;;9.00;8.25;;;;;21.13;61.62;101129.94;2399150;28;45630;-77
2022/05/16 02:53:54;;;;;;;;;9.25;7.50;;;;;21.13;60.80;101124.59;2423778;28;46513;-77
2022/05/16 02:55:06;;;;;;;;;7.50;6.50;;;;;21.12;60.99;101125.53;2424702;28;45200;-79
2022/05/16 02:56:16;;;;;;;;;8.00;7.00;;;;;21.14;59.89;101123.59;2395869;28;47635;-79
2022/05/16 02:57:28;;;;;;;;;11.25;8.00;;;;;21.14;60.42;101123.59;2407909;28;45319;-79
2022/05/16 02:58:38;;;;;;;;;8.00;8.00;;;;;21.12;60.43;101114.00;2425961;28;45441;-79
2022/05/16 02:59:49;;;;;;;;;8.00;8.00;;;;;21.14;61.00;101126.28;2419165;28;45429;-80
2022/05/16 03:00:59;;;;;;;;;9.75;7.00;;;;;21.14;61.31;101134.28;2437291;28;46097;-80
2022/05/16 03:02:11;;;;;;;;;8.25;8.25;;;;;21.14;61.32;101126.28;2398748;28;44720;-80
2022/05/16 03:03:21;;;;;;;;;10.50;9.00;;;;;21.11;61.75;101120.31;2408220;28;47093;-80
2022/05/16 03:04:32;;;;;;;;;7.50;6.25;;;;;21.12;60.33;101122.88;2420981;28;45393;-80
2022/05/16 03:05:43;;;;;;;;;11.00;9.00;;;;;21.11;61.46;101120.31;2406372;28;46326;-80
2022/05/16 03:06:54;;;;;;;;;10.00;7.25;;;;;21.09;61.18;101125.75;2397618;28;45212;-79
2022/05/16 03:08:05;;;;;;;;;9.50;6.50;;;;;21.09;60.10;101117.72;2436148;28;47073;-82
2022/05/16 03:09:15;;;;;;;;;13.00;9.50;;;;;21.08;61.30;101121.38;2436877;28;45316;-82
2022/05/16 03:10:26;;;;;;;;;13.00;9.25;;;;;21.08;61.44;101116.03;2410900;28;46458;-82
2022/05/16 03:11:36;;;;;;;;;11.75;9.00;;;;;21.11;60.77;101128.34;2411702;28;44775;-82
2022/05/16 03:12:49;;;;;;;;;9.00;8.00;;;;;21.10;60.85;101124.81;2405118;28;46064;-82
2022/05/16 03:13:59;;;;;;;;;10.75;9.75;;;;;21.12;61.62;101119.34;2415690;28;44811;-82
2022/05/16 03:15:10;;;;;;;;;11.00;9.00;;;;;21.13;62.08;101126.41;2409286;28;48274;-82
2022/05/16 03:16:20;;;;;;;;;8.75;8.00;;;;;21.12;60.69;101122.00;2429127;28;45372;-82
2022/05/16 03:17:31;;;;;;;;;9.50;8.25;;;;;21.09;61.86;101123.09;2409184;28;46483;-80
2022/05/16 03:18:41;;;;;;;;;11.00;9.00;;;;;21.12;62.12;101130.88;2432849;28;45203;-80
2022/05/16 03:19:51;;;;;;;;;10.50;10.00;;;;;21.10;62.11;101132.81;2399374;28;48055;-80
2022/05/16 03:21:02;;;;;;;;;7.75;7.75;;;;;21.10;61.19;101130.16;2429441;28;45311;-81
2022/05/16 03:22:12;;;;;;;;;13.00;9.50;;;;;21.09;61.60;101131.09;2423878;28;46244;-81
2022/05/16 03:23:23;;;;;;;;;10.00;8.75;;;;;21.10;61.61;101129.28;2404720;28;45318;-81
2022/05/16 03:24:34;;;;;;;;;8.75;8.25;;;;;21.08;60.49;101131.22;2406364;28;45650;-80
2022/05/16 03:25:45;;;;;;;;;10.25;10.25;;;;;21.07;61.96;101130.34;2424108;28;45407;-79
2022/05/16 03:26:55;;;;;;;;;10.00;10.00;;;;;21.06;61.50;101139.34;2399600;28;46375;-79
2022/05/16 03:28:06;;;;;;;;;9.00;9.00;;;;;21.06;62.46;101149.19;2399734;28;44659;-79
2022/05/16 03:29:16;;;;;;;;;11.50;9.00;;;;;21.05;62.10;101153.66;2405119;28;48009;-78
2022/05/16 03:30:28;;;;;;;;;11.25;9.75;;;;;21.05;60.57;101150.13;2409997;28;45248;-80
2022/05/16 03:31:40;;;;;;;;;9.25;8.00;;;;;21.03;60.58;101147.59;2409744;28;45725;-79
2022/05/16 03:32:50;;;;;;;;;12.00;9.75;;;;;21.04;61.15;101154.63;2408033;28;45337;-78
2022/05/16 03:34:01;;;;;;;;;7.75;7.75;;;;;21.04;60.39;101159.97;2425524;28;47010;-79
2022/05/16 03:35:11;;;;;;;;;10.75;10.50;;;;;21.03;61.43;101160.94;2431960;28;45395;-80
2022/05/16 03:36:21;;;;;;;;;14.75;11.25;;;;;21.04;61.61;101162.63;2407976;28;47153;-79
2022/05/16 03:37:32;;;;;;;;;12.25;11.75;;;;;21.02;61.22;101160.09;2407395;28;45369;-79
2022/05/16 03:41:41;;;;;;;;;9.00;7.50;;;;;21.01;60.95;101177.06;2407600;28;45504;-79
2022/05/16 03:42:52;;;;;;;;;14.25;12.25;;;;;20.99;61.72;101172.78;2415321;28;45315;-81
2022/05/16 03:44:02;;;;;;;;;15.25;11.50;;;;;21.02;61.79;101180.59;2421171;28;45655;-82
2022/05/16 03:45:13;;;;;;;;;10.50;9.00;;;;;20.99;61.07;101181.63;2428570;28;45438;-81
2022/05/16 03:46:24;;;;;;;;;12.25;10.00;;;;;21.02;60.47;101180.59;2414143;28;45465;-81
2022/05/16 03:47:34;;;;;;;;;10.25;10.25;;;;;21.00;60.86;101183.38;2403606;28;45286;-81
2022/05/16 03:48:44;;;;;;;;;14.25;11.50;;;;;21.02;61.32;101185.94;2429430;28;46307;-82
2022/05/16 03:49:55;;;;;;;;;11.50;11.50;;;;;21.03;62.13;101187.66;2419789;28;46656;-82
2022/05/16 03:51:07;;;;;;;;;17.00;13.50;;;;;21.04;61.96;101186.69;2427711;28;45496;-82
2022/05/16 03:52:18;;;;;;;;;13.25;11.00;;;;;21.06;62.02;101197.28;2402233;28;45628;-82
2022/05/16 03:53:28;;;;;;;;;9.50;9.00;;;;;21.04;60.89;101196.53;2421240;28;46179;-83
2022/05/16 03:54:40;;;;;;;;;15.25;12.25;;;;;21.03;60.63;101193.00;2422571;28;45295;-83
2022/05/16 03:55:51;;;;;;;;;11.25;10.00;;;;;21.04;60.72;101193.88;2402121;28;47788;-83
2022/05/16 03:57:01;;;;;;;;;10.75;10.25;;;;;21.02;60.21;101196.63;2422046;28;45205;-83
2022/05/16 03:58:12;;;;;;;;;11.50;11.50;;;;;21.04;60.19;101193.88;2433217;27;47668;-82
2022/05/16 03:59:23;;;;;;;;;11.00;10.00;;;;;21.07;60.35;101199.84;2441169;28;44824;-82
2022/05/16 04:00:33;;;;;;;;;11.75;11.00;;;;;21.06;60.83;101198.16;2406329;28;46480;-82
2022/05/16 04:01:44;;;;;;;;;9.50;9.50;;;;;21.07;60.07;101202.50;2413542;28;45295;-82
2022/05/16 04:02:54;;;;;;;;;11.00;9.75;;;;;21.08;59.85;101211.38;2429441;28;45287;-82
2022/05/16 04:04:05;;;;;;;;;13.50;10.50;;;;;21.10;60.74;101202.31;2404553;28;44917;-81
2022/05/16 04:05:19;;;;;;;;;11.25;10.00;;;;;21.11;60.30;101201.31;2416433;28;45259;-80
2022/05/16 04:06:29;;;;;;;;;17.00;12.25;;;;;21.12;60.94;101200.38;2438492;28;45355;-80
2022/05/16 04:07:39;;;;;;;;;12.50;11.25;;;;;21.13;60.72;101204.75;2410251;28;45670;-80
2022/05/16 04:08:50;;;;;;;;;14.00;12.00;;;;;21.16;60.91;101197.47;2434613;28;45576;-80
2022/05/16 04:10:01;;;;;;;;;16.00;12.25;;;;;21.17;61.00;101199.19;2403514;28;47083;-80
2022/05/16 04:11:15;;;;;;;;;12.75;10.75;;;;;21.19;60.61;101205.25;2402553;28;45510;-80
2022/05/16 04:12:25;;;;;;;;;9.00;9.00;;;;;21.19;60.32;101202.59;2419935;28;46534;-80
2022/05/16 04:13:36;;;;;;;;;20.25;15.75;;;;;21.17;61.53;101194.69;2405037;28;45208;-80
2022/05/16 04:14:47;;;;;;;;;13.25;10.50;;;;;21.14;60.51;101194.91;2394548;28;46279;-80
2022/05/16 04:15:57;;;;;;;;;18.75;14.50;;;;;21.17;61.45;101205.38;2413383;28;44567;-80
2022/05/16 04:17:07;;;;;;;;;16.25;14.25;;;;;21.16;61.72;101209.03;2434641;28;46115;-80
2022/05/16 04:18:18;;;;;;;;;14.25;13.00;;;;;21.16;61.31;101213.53;2419246;28;45736;-81
2022/05/16 04:19:29;;;;;;;;;11.00;10.50;;;;;21.13;61.25;101214.59;2406217;27;47201;-83
2022/05/16 04:20:39;;;;;;;;;14.50;11.00;;;;;21.13;61.78;101218.13;2429235;28;45354;-82
2022/05/16 04:21:50;;;;;;;;;11.50;10.50;;;;;21.12;60.29;101218.22;2402804;28;46363;-82
2022/05/16 04:23:00;;;;;;;;;11.50;9.50;;;;;21.11;60.30;101221.88;2424671;28;45477;-81
2022/05/16 04:24:10;;;;;;;;;15.75;13.00;;;;;21.11;61.48;101227.22;2419581;28;45295;-81
2022/05/16 04:25:21;;;;;;;;;12.00;10.25;;;;;21.09;60.19;101229.97;2434946;28;45443;-81
2022/05/16 04:26:32;;;;;;;;;12.50;11.00;;;;;21.11;61.10;101236.06;2405171;28;46461;-80
2022/05/16 04:27:42;;;;;;;;;13.00;10.50;;;;;21.10;60.71;101237.03;2415283;28;44677;-79
2022/05/16 04:28:53;;;;;;;;;12.00;12.00;;;;;21.12;60.40;101236.91;2409179;28;45505;-79
2022/05/16 04:30:03;;;;;;;;;13.75;13.00;;;;;21.10;61.61;101230.84;2419440;28;45277;-80
2022/05/16 04:31:14;;;;;;;;;18.50;14.00;;;;;21.12;61.19;101237.78;2389768;28;47131;-79
2022/05/16 04:32:25;;;;;;;;;15.75;14.50;;;;;21.13;61.69;101250.19;2387896;28;45335;-78
2022/05/16 04:33:35;;;;;;;;;18.25;14.00;;;;;21.14;61.07;101251.88;2424184;28;45338;-80
2022/05/16 04:34:45;;;;;;;;;13.50;12.75;;;;;21.13;61.19;101246.66;2418608;28;44758;-79
2022/05/16 04:35:56;;;;;;;;;12.00;11.25;;;;;21.11;60.89;101246.75;2429216;28;45625;-79
2022/05/16 04:37:06;;;;;;;;;13.50;12.50;;;;;21.12;61.36;101245.81;2401664;28;45212;-78
2022/05/16 04:38:16;;;;;;;;;13.75;12.00;;;;;21.13;62.02;101255.53;2423699;28;45410;-80
2022/05/16 04:39:27;;;;;;;;;11.75;11.75;;;;;21.12;60.97;101253.81;2416799;28;45255;-80
2022/05/16 04:43:36;;;;;;;;;14.50;12.75;;;;;21.09;61.08;101262.03;2393359;28;45287;-81
2022/05/16 04:44:47;;;;;;;;;13.50;12.50;;;;;21.08;60.33;101267.50;2394302;28;45257;-81
2022/05/16 04:45:57;;;;;;;;;19.75;17.00;;;;;21.08;61.44;101260.34;2391490;28;46886;-79
2022/05/16 04:47:09;;;;;;;;;22.00;17.00;;;;;21.09;61.44;101270.06;2401317;28;45300;-79
2022/05/16 04:48:19;;;;;;;;;11.25;11.25;;;;;21.08;61.37;101275.53;2413798;28;45455;-82
2022/05/16 04:49:30;;;;;;;;;20.75;15.50;;;;;21.09;61.44;101286.09;2427590;28;45363;-82
2022/05/16 04:50:40;;;;;;;;;25.25;17.25;;;;;21.08;61.88;101284.41;2401755;28;46943;-81
2022/05/16 04:51:51;;;;;;;;;15.25;14.75;;;;;21.08;60.98;101284.41;2418556;28;45385;-80
2022/05/16 04:53:01;;;;;;;;;15.25;14.50;;;;;21.10;61.27;101292.31;2424805;28;45417;-80
2022/05/16 04:54:11;;;;;;;;;12.50;11.25;;;;;21.08;60.60;101295.09;2401362;28;45312;-81
2022/05/16 04:55:22;;;;;;;;;7.75;6.75;;;;;21.09;60.96;101291.44;2430933;28;46757;-80
2022/05/16 04:56:34;;;;;;;;;18.00;13.50;;;;;21.11;60.39;101307.38;2409748;28;45331;-82
2022/05/16 04:57:45;;;;;;;;;19.50;18.50;;;;;21.13;61.55;101321.50;2428638;28;48417;-82
2022/05/16 04:58:55;;;;;;;;;16.50;14.25;;;;;21.15;60.71;101327.59;2423488;28;45375;-82
2022/05/16 05:00:08;;;;;;;;;15.50;15.50;;;;;21.12;61.46;101328.66;2423820;28;46106;-82
2022/05/16 05:01:18;;;;;;;;;19.50;16.00;;;;;21.13;61.70;101322.34;2434001;28;45380;-82
2022/05/16 05:02:29;;;;;;;;;17.00;16.75;;;;;21.13;61.93;101329.50;2406485;28;46947;-82
2022/05/16 05:03:40;;;;;;;;;18.00;15.50;;;;;21.14;61.87;101340.09;2396185;28;45532;-82
2022/05/16 05:04:51;;;;;;;;;14.75;13.50;;;;;21.13;61.57;101337.53;2393092;28;45421;-82
2022/05/16 05:06:01;;;;;;;;;18.50;15.00;;;;;21.11;62.20;101334.94;2426244;28;44705;-82
2022/05/16 05:07:12;;;;;;;;;15.00;14.25;;;;;21.15;61.87;101348.97;2431205;28;45480;-81
2022/05/16 05:08:23;;;;;;;;;20.25;16.50;;;;;21.16;61.94;101349.81;2409853;28;44787;-81
2022/05/16 05:14:31;;;;;;;;;17.50;17.00;;;;;21.12;61.86;101344.69;2424485;28;47755;-81
2022/05/16 05:14:32;;;;;;;;;22.25;17.00;;;;;21.08;61.68;101339.66;2402011;28;44855;-80
2022/05/16 05:15:43;;;;;;;;;18.75;16.00;;;;;21.05;62.13;101332.69;2402507;28;48420;-82
2022/05/16 05:16:53;;;;;;;;;22.00;18.50;;;;;21.03;61.86;101337.31;2396480;28;45265;-83
2022/05/16 05:18:05;;;;;;;;;21.25;17.00;;;;;21.00;61.71;101326.78;2394716;28;45348;-79
2022/05/16 05:19:15;;;;;;;;;16.75;16.75;;;;;20.96;61.61;101322.63;2399082;28;45548;-78
2022/05/16 05:20:26;;;;;;;;;23.00;18.75;;;;;20.95;61.47;101328.91;2436758;28;46169;-78
2022/05/16 05:21:36;;;;;;;;;21.00;17.75;;;;;20.93;61.85;101331.69;2398557;28;44776;-83
2022/05/16 05:22:48;;;;;;;;;17.50;12.75;;;;;20.92;61.25;101330.84;2402617;28;45276;-81
2022/05/16 05:24:00;;;;;;;;;18.00;15.75;;;;;20.92;61.42;101336.19;2420189;28;45548;-79
2022/05/16 05:25:13;;;;;;;;;20.25;18.75;;;;;20.93;61.58;101334.38;2416616;28;46585;-80
2022/05/16 05:26:24;;;;;;;;;23.00;17.75;;;;;20.95;61.95;101344.94;2400719;28;45284;-80
2022/05/16 05:27:34;;;;;;;;;19.00;19.00;;;;;20.96;61.64;101344.84;2404951;28;45371;-79
2022/05/16 05:28:44;;;;;;;;;17.50;17.50;;;;;20.97;61.73;101343.88;2417813;28;45276;-77
2022/05/16 05:29:55;;;;;;;;;20.00;18.50;;;;;20.98;61.99;101358.09;2408240;28;45330;-77
2022/05/16 05:31:10;;;;;;;;;18.50;18.50;;;;;20.99;61.71;101362.50;2415727;28;45571;-77
2022/05/16 05:32:20;;;;;;;;;14.75;12.50;;;;;20.97;60.86;101361.72;2396577;28;47338;-78
2022/05/16 05:33:31;;;;;;;;;18.75;18.00;;;;;20.97;61.29;101364.38;2424350;28;45288;-77
2022/05/16 05:34:41;;;;;;;;;19.00;17.00;;;;;20.96;61.37;101368.03;2402729;28;46963;-76
2022/05/16 05:35:52;;;;;;;;;17.00;15.50;;;;;20.98;61.60;101371.47;2436357;28;44627;-77
2022/05/16 05:37:02;;;;;;;;;18.00;16.50;;;;;20.98;61.77;101380.34;2408497;28;46752;-77
2022/05/16 05:38:13;;;;;;;;;13.00;12.50;;;;;20.99;60.86;101378.53;2429222;28;45299;-76
2022/05/16 05:39:23;;;;;;;;;14.00;12.50;;;;;21.00;61.04;101389.13;2409137;28;47061;-76
2022/05/16 05:40:33;;;;;;;;;25.25;20.50;;;;;21.01;61.45;101396.16;2403328;28;46649;-76
2022/05/16 05:41:44;;;;;;;;;20.50;16.75;;;;;21.02;60.94;101394.38;2429334;28;45551;-77
2022/05/16 05:42:54;;;;;;;;;17.75;15.75;;;;;21.04;60.56;101399.63;2398611;28;45615;-76
2022/05/16 05:44:05;;;;;;;;;24.75;22.75;;;;;21.04;61.71;101408.47;2393802;28;48007;-76
2022/05/16 05:45:15;;;;;;;;;20.50;18.75;;;;;21.05;61.79;101402.19;2392969;28;45395;-76
2022/05/16 05:46:27;;;;;;;;;21.25;19.50;;;;;21.04;61.99;101407.63;2426523;28;45333;-76